Sterling, Massachusetts
Current Conditions -  °F | °C
As of 1:52 PM on Monday 20 Oct 2014 (Local Time) from KFIT Reporting Station
Few Clouds Few Clouds  
Wind Chill: 55°   Ceiling: Unl
Heat Index: 55°   Visibility: 10mi
Dew Point: 31°   Wind: 9mph
Humidity: 40%   Direction: 220°SW
Pressure: 29.98"   Gusts: NA
Location:  42.44°N, 71.76°W
Report Text: KFIT 201752Z AUTO 22008KT 10SM FEW120 13/M01 A2998 RMK AO2 SLP154 T01281006 10128 20017 58026 TSNO
Loading
Personal Weather Stations






























Interactive Weather Map
Tropical Storm Tracking
New forecast layout! Learn more

10-Day Weather Forecast

Advertisements
Track Severe Weather on mobile